Time;durP1;ratioP1;P1;durP2;ratioP2;P2;SDS_P1;SDS_P2;PMS_P1;PMS_P2;Temp;Humidity;BMP_temperature;BMP_pressure;BME280_temperature;BME280_humidity;BME280_pressure;Samples;Min_cycle;Max_cycle;Signal;HPM_P1;HPM_P2
2022/06/17 04:18:33;;;;;;;5.12;4.40;;;;;;;16.75;100.00;100586.63;5560638;32;238126;-86
2022/06/17 04:21:37;;;;;;;4.60;4.03;;;;;;;16.75;100.00;100586.63;5549068;32;34525;-86
2022/06/17 04:24:40;;;;;;;5.50;4.10;;;;;;;16.39;100.00;100583.81;5548277;32;34211;-86
2022/06/17 04:27:56;;;;;;;5.65;4.50;;;;;;;16.50;100.00;100598.28;5547611;32;34279;-86
2022/06/17 04:31:04;;;;;;;6.60;4.20;;;;;;;16.59;100.00;100602.94;5546816;32;33881;-86
2022/06/17 04:34:14;;;;;;;5.82;4.22;;;;;;;16.69;100.00;100601.34;5547704;32;33519;-86
2022/06/17 04:37:21;;;;;;;6.47;3.92;;;;;;;16.81;100.00;100601.41;5548029;32;34180;-86
2022/06/17 04:40:41;;;;;;;6.05;4.15;;;;;;;17.14;99.14;100597.25;5549042;32;33951;-86
2022/06/17 04:43:47;;;;;;;5.10;3.92;;;;;;;17.14;98.54;100601.78;5547535;32;33659;-86
2022/06/17 04:47:02;;;;;;;4.70;4.20;;;;;;;17.14;98.49;100594.56;5549306;32;34298;-86
2022/06/17 04:50:13;;;;;;;4.25;3.85;;;;;;;17.36;96.49;100591.12;5548507;32;34094;-87
2022/06/17 04:53:16;;;;;;;4.30;3.90;;;;;;;17.65;94.79;100590.75;5548074;32;33955;-90
2022/06/17 04:56:48;;;;;;;4.10;3.62;;;;;;;17.77;94.26;100588.12;5536905;32;33871;-90
2022/06/17 04:59:50;;;;;;;6.37;4.10;;;;;;;17.93;94.18;100590.47;5547197;32;34072;-86
2022/06/17 05:02:54;;;;;;;4.45;4.00;;;;;;;17.90;92.46;100578.12;5554502;32;34826;-87
2022/06/17 05:05:57;;;;;;;4.75;4.30;;;;;;;18.20;90.63;100578.56;5558995;32;35193;-86
2022/06/17 05:09:29;;;;;;;7.03;4.30;;;;;;;18.38;91.15;100589.69;5558018;32;34847;-87
2022/06/17 05:12:44;;;;;;;7.18;5.30;;;;;;;18.49;91.21;100585.28;5541113;32;33934;-86
2022/06/17 05:15:47;;;;;;;7.25;5.10;;;;;;;18.45;90.38;100580.16;5543338;32;34169;-86
2022/06/17 05:18:50;;;;;;;5.12;4.35;;;;;;;18.46;89.78;100597.16;5540938;32;33657;-86
2022/06/17 05:21:53;;;;;;;5.20;4.22;;;;;;;19.02;87.07;100592.66;5531113;32;33790;-86
2022/06/17 05:24:58;;;;;;;7.15;4.70;;;;;;;19.52;83.13;100592.13;5544381;32;34568;-86
2022/06/17 05:28:01;;;;;;;5.75;4.60;;;;;;;20.25;78.78;100597.69;5527899;32;33671;-86
2022/06/17 05:31:05;;;;;;;6.28;4.47;;;;;;;20.78;77.37;100593.09;5523814;32;34848;-86
2022/06/17 05:34:09;;;;;;;6.12;4.03;;;;;;;21.29;73.46;100588.53;5511668;32;33230;-87
2022/06/17 05:37:14;;;;;;;4.72;3.80;;;;;;;22.38;69.96;100596.44;5516653;32;34528;-87
2022/06/17 05:40:17;;;;;;;6.78;3.83;;;;;;;23.85;62.72;100591.91;5510611;32;33711;-87
2022/06/17 05:43:20;;;;;;;4.57;3.70;;;;;;;23.52;62.91;100597.91;5513644;32;32466;-87
2022/06/17 05:46:23;;;;;;;6.05;3.90;;;;;;;24.18;60.65;100599.44;5510900;32;34565;-87
2022/06/17 05:49:29;;;;;;;7.47;3.45;;;;;;;23.35;63.37;100604.19;5510483;32;34919;-88
2022/06/17 05:52:32;;;;;;;5.30;3.53;;;;;;;23.86;61.92;100601.72;5515753;32;33728;-87
2022/06/17 05:55:36;;;;;;;3.53;3.28;;;;;;;24.67;58.88;100598.81;5517773;32;33584;-87
2022/06/17 05:58:39;;;;;;;4.60;3.10;;;;;;;26.40;53.08;100612.66;5526045;32;33577;-86
2022/06/17 06:01:42;;;;;;;3.33;3.00;;;;;;;27.53;49.68;100631.47;5525125;32;35000;-86
2022/06/17 06:04:46;;;;;;;4.95;3.35;;;;;;;26.36;51.77;100642.06;5530250;32;34747;-86
2022/06/17 06:07:49;;;;;;;4.93;3.08;;;;;;;25.38;55.25;100633.78;5520922;32;34369;-87
2022/06/17 06:10:52;;;;;;;3.03;2.53;;;;;;;24.27;58.38;100632.81;5516258;32;33688;-88
2022/06/17 06:13:55;;;;;;;4.35;3.00;;;;;;;24.26;59.04;100636.56;5575577;26;34348;-88
2022/06/17 06:20:43;;;;;;;5.78;2.90;;;;;;;26.25;53.52;100639.75;5507705;32;34107;-85
2022/06/17 06:23:47;;;;;;;4.55;2.90;;;;;;;25.43;54.17;100639.56;5506769;32;34991;-87
2022/06/17 06:26:53;;;;;;;4.07;2.78;;;;;;;25.92;53.35;100637.03;5510202;32;32440;-87
2022/06/17 06:29:56;;;;;;;4.15;2.50;;;;;;;25.91;54.28;100647.06;5501840;32;34033;-87
2022/06/17 06:33:01;;;;;;;3.75;3.00;;;;;;;27.15;51.37;100648.56;5504667;32;34817;-86
2022/06/17 06:36:05;;;;;;;2.80;2.60;;;;;;;26.39;52.03;100649.03;5495680;32;33972;-87
2022/06/17 06:39:07;;;;;;;4.30;2.80;;;;;;;24.39;56.41;100652.41;5501802;32;34276;-86
2022/06/17 06:42:10;;;;;;;4.28;2.90;;;;;;;23.52;61.02;100649.34;5499375;32;32928;-85
2022/06/17 06:45:24;;;;;;;4.53;2.90;;;;;;;22.77;63.42;100653.06;5501941;32;34445;-85
2022/06/17 06:48:28;;;;;;;5.43;3.15;;;;;;;23.31;62.25;100652.34;5504772;32;33629;-85
2022/06/17 06:51:30;;;;;;;3.70;3.20;;;;;;;22.48;64.31;100654.03;5506831;32;32786;-85
2022/06/17 06:54:34;;;;;;;4.68;3.17;;;;;;;22.24;65.18;100660.78;5508853;32;34573;-86
2022/06/17 06:58:00;;;;;;;4.50;2.97;;;;;;;21.74;67.50;100659.12;5506053;32;34228;-85
2022/06/17 07:01:04;;;;;;;8.13;3.00;;;;;;;23.22;62.52;100662.22;5509122;32;33873;-87
2022/06/17 07:04:07;;;;;;;6.35;3.17;;;;;;;24.21;59.36;100659.59;5512633;32;34052;-87
2022/06/17 07:07:11;;;;;;;6.25;3.53;;;;;;;23.86;60.83;100660.47;5516317;32;33930;-86
2022/06/17 07:10:27;;;;;;;5.55;3.12;;;;;;;24.06;58.86;100658.41;5502682;32;34151;-87
2022/06/17 07:13:31;;;;;;;3.67;3.30;;;;;;;23.97;59.04;100662.91;5509498;32;33960;-85
2022/06/17 07:16:33;;;;;;;3.17;2.87;;;;;;;23.89;59.66;100660.16;5501992;32;34708;-85
2022/06/17 07:19:36;;;;;;;6.50;3.40;;;;;;;23.74;59.71;100670.69;5503776;32;34004;-85
2022/06/17 07:22:39;;;;;;;8.05;3.42;;;;;;;23.42;61.48;100671.09;5509362;32;32749;-87
2022/06/17 07:25:44;;;;;;;7.00;3.58;;;;;;;24.41;58.45;100670.19;5513418;32;35919;-90
2022/06/17 07:29:08;;;;;;;3.83;3.05;;;;;;;24.52;58.71;100668.19;5512848;32;34407;-87
2022/06/17 07:32:11;;;;;;;3.42;2.95;;;;;;;24.65;56.57;100674.06;5505665;32;32862;-85
2022/06/17 07:35:17;;;;;;;5.53;2.92;;;;;;;25.32;54.32;100674.31;5503226;32;34725;-87
2022/06/17 07:41:44;;;;;;;2.97;2.70;;;;;;;25.78;52.16;100674.75;5498322;32;34061;-87
2022/06/17 07:44:47;;;;;;;4.32;3.00;;;;;;;26.35;50.82;100674.91;5501254;32;34331;-87
2022/06/17 07:47:51;;;;;;;2.83;2.60;;;;;;;26.19;51.47;100682.00;5499725;32;34328;-88
2022/06/17 07:50:58;;;;;;;3.80;2.70;;;;;;;25.90;50.53;100682.56;5510188;32;33348;-88
2022/06/17 07:54:01;;;;;;;4.40;3.22;;;;;;;26.01;50.87;100682.22;5512448;32;34113;-87
2022/06/17 07:57:05;;;;;;;3.90;3.00;;;;;;;26.90;47.74;100673.16;5511730;32;33592;-88
2022/06/17 08:00:13;;;;;;;7.35;2.70;;;;;;;27.60;46.23;100672.47;5498092;32;34920;-87
2022/06/17 08:03:18;;;;;;;2.70;2.50;;;;;;;27.71;47.45;100680.22;5512156;32;32815;-87
2022/06/17 08:06:21;;;;;;;2.87;2.67;;;;;;;27.89;45.16;100676.31;5500865;32;33595;-87
2022/06/17 08:09:25;;;;;;;3.85;2.55;;;;;;;28.79;42.81;100672.84;5509183;32;33837;-87
2022/06/17 08:12:27;;;;;;;2.50;2.30;;;;;;;28.00;41.57;100674.19;5497622;32;34380;-87
2022/06/17 08:15:30;;;;;;;3.90;2.60;;;;;;;28.62;39.25;100686.69;5504231;32;33763;-86
2022/06/17 08:18:36;;;;;;;2.62;2.42;;;;;;;29.27;40.06;100675.13;5515115;32;34339;-87
2022/06/17 08:21:40;;;;;;;3.00;2.60;;;;;;;29.23;37.77;100682.03;5511395;32;33836;-87
2022/06/17 08:25:00;;;;;;;2.45;2.30;;;;;;;29.72;37.35;100683.19;5509300;32;34412;-87
2022/06/17 08:28:06;;;;;;;3.22;2.33;;;;;;;30.38;36.73;100681.19;5498054;32;33647;-86
2022/06/17 08:31:08;;;;;;;5.32;2.35;;;;;;;30.21;35.84;100675.19;5490163;32;34359;-87
2022/06/17 08:34:11;;;;;;;2.37;2.20;;;;;;;29.56;37.45;100680.72;5489795;32;34149;-88
2022/06/17 08:37:15;;;;;;;2.65;2.45;;;;;;;29.15;36.68;100672.06;5490443;32;33949;-87
2022/06/17 08:40:52;;;;;;;2.50;2.30;;;;;;;29.56;35.43;100676.09;5490403;32;34242;-87
2022/06/17 08:44:22;;;;;;;2.75;2.22;;;;;;;29.97;34.93;100679.19;5495507;32;34085;-86
2022/06/17 08:47:37;;;;;;;2.40;2.20;;;;;;;29.89;34.97;100673.84;5501797;32;33739;-86
2022/06/17 08:50:45;;;;;;;4.45;2.42;;;;;;;30.37;33.10;100674.03;5494310;32;33823;-86
2022/06/17 08:54:20;;;;;;;5.28;2.60;;;;;;;30.99;33.12;100686.16;5489352;32;33544;-88
2022/06/17 08:57:41;;;;;;;3.25;2.50;;;;;;;30.47;35.43;100684.59;5488675;32;33284;-87
2022/06/17 09:01:11;;;;;;;3.97;2.70;;;;;;;30.92;33.09;100684.25;5507159;32;34114;-86
2022/06/17 09:04:25;;;;;;;3.08;2.47;;;;;;;31.41;33.75;100686.09;5509273;32;34063;-87
2022/06/17 09:07:43;;;;;;;3.10;2.80;;;;;;;29.45;36.38;100691.09;5511827;32;34173;-91
2022/06/17 09:10:58;;;;;;;2.70;2.50;;;;;;;31.02;35.39;100683.84;5511866;32;33368;-86
2022/06/17 09:14:32;;;;;;;2.97;2.40;;;;;;;32.17;30.45;100684.06;5510781;32;32888;-87
2022/06/17 09:18:01;;;;;;;2.70;2.50;;;;;;;32.24;32.39;100689.53;5512918;32;33904;-87
2022/06/17 09:21:14;;;;;;;12.88;2.97;;;;;;;32.66;29.87;100701.09;5516487;32;33555;-86
2022/06/17 09:24:22;;;;;;;4.22;3.03;;;;;;;31.19;30.06;100694.47;5510839;32;34318;-87
2022/06/17 09:27:30;;;;;;;2.97;2.72;;;;;;;31.75;29.05;100697.97;5511785;32;33757;-86
2022/06/17 09:30:38;;;;;;;2.75;2.53;;;;;;;32.39;28.17;100694.81;5512440;32;34552;-88
2022/06/17 09:33:47;;;;;;;4.15;3.05;;;;;;;32.06;28.59;100703.91;5512033;32;34552;-87
2022/06/17 09:37:02;;;;;;;4.07;2.70;;;;;;;33.17;27.68;100689.50;5510506;32;34837;-87
2022/06/17 09:40:12;;;;;;;2.78;2.55;;;;;;;33.26;26.37;100703.81;5510558;32;34364;-87
2022/06/17 09:43:43;;;;;;;3.90;2.67;;;;;;;32.67;27.62;100705.53;5510087;32;34701;-91
2022/06/17 09:46:53;;;;;;;5.45;2.87;;;;;;;32.84;27.92;100715.19;5509855;32;33563;-87
2022/06/17 09:50:14;;;;;;;3.08;2.87;;;;;;;33.06;28.30;100704.78;5510409;32;34105;-87
2022/06/17 09:53:35;;;;;;;3.00;2.47;;;;;;;32.78;27.20;100712.25;5510971;32;33663;-86
2022/06/17 09:57:17;;;;;;;3.45;2.97;;;;;;;32.00;29.47;100720.19;5511828;32;35123;-86
2022/06/17 10:00:24;;;;;;;6.28;3.30;;;;;;;32.39;28.10;100723.06;5510242;32;34904;-87
2022/06/17 10:03:35;;;;;;;4.57;3.08;;;;;;;31.48;29.86;100727.22;5505808;32;33916;-87
2022/06/17 10:07:00;;;;;;;3.37;3.08;;;;;;;30.18;31.98;100732.19;5507169;32;34575;-86
2022/06/17 10:10:17;;;;;;;3.17;2.87;;;;;;;28.92;34.75;100729.56;5506652;32;34171;-85
2022/06/17 10:13:35;;;;;;;7.35;3.25;;;;;;;30.20;31.80;100735.56;5503423;32;34247;-87
2022/06/17 10:20:31;;;;;;;3.78;3.17;;;;;;;30.31;33.29;100734.19;5492958;32;32748;-86
2022/06/17 10:23:56;;;;;;;4.82;3.85;;;;;;;29.81;34.35;100741.31;5502297;32;32272;-86
2022/06/17 10:27:21;;;;;;;8.52;3.97;;;;;;;28.91;37.42;100749.69;5509379;32;34541;-87
2022/06/17 10:31:09;;;;;;;4.00;3.58;;;;;;;28.25;40.95;100743.84;5509315;32;34576;-87
2022/06/17 10:34:27;;;;;;;3.92;3.62;;;;;;;27.15;43.13;100746.59;5499720;32;34390;-90
2022/06/17 10:37:33;;;;;;;7.05;3.70;;;;;;;26.74;43.77;100739.38;5493243;32;33956;-87
2022/06/17 10:40:55;;;;;;;4.82;3.50;;;;;;;27.05;42.41;100743.22;5503273;32;33713;-87
2022/06/17 10:44:00;;;;;;;6.28;3.50;;;;;;;27.26;38.35;100741.78;5504034;32;34520;-87
2022/06/17 10:47:32;;;;;;;3.35;3.05;;;;;;;27.36;38.91;100752.44;5497102;32;34417;-87
2022/06/17 10:50:34;;;;;;;4.22;3.12;;;;;;;27.92;35.09;100737.81;5525155;32;33869;-87
2022/06/17 10:53:52;;;;;;;5.40;3.60;;;;;;;28.77;32.22;100746.72;5498756;32;32713;-88
2022/06/17 10:56:55;;;;;;;5.18;3.30;;;;;;;29.83;30.62;100746.59;5493708;32;34259;-88
2022/06/17 10:59:58;;;;;;;4.40;3.70;;;;;;;29.39;29.66;100746.50;5510835;32;33995;-88
2022/06/17 11:03:17;;;;;;;5.80;3.40;;;;;;;29.85;29.34;100755.41;5522844;32;35481;-87
2022/06/17 11:06:23;;;;;;;5.97;3.70;;;;;;;29.94;29.20;100746.06;5508524;32;34043;-87
2022/06/17 11:09:46;;;;;;;4.78;3.62;;;;;;;30.55;30.77;100738.34;5517911;32;34623;-87
2022/06/17 11:13:02;;;;;;;5.20;3.80;;;;;;;31.26;30.80;100732.84;5502547;32;34275;-87
2022/06/17 11:16:05;;;;;;;4.03;3.50;;;;;;;29.36;31.94;100751.50;5505567;32;35250;-88
2022/06/17 11:19:15;;;;;;;8.13;4.00;;;;;;;29.10;32.47;100739.22;5496673;32;34231;-88
2022/06/17 11:22:26;;;;;;;6.00;3.92;;;;;;;27.88;35.64;100750.94;5505926;32;33982;-87
2022/06/17 11:25:31;;;;;;;7.57;4.20;;;;;;;27.11;39.71;100741.69;5504789;32;34451;-86
2022/06/17 11:28:38;;;;;;;5.40;4.03;;;;;;;27.05;36.85;100748.66;5508955;32;35299;-86
2022/06/17 11:31:45;;;;;;;6.30;3.72;;;;;;;27.19;36.77;100736.19;5511258;32;34303;-86
2022/06/17 11:34:55;;;;;;;6.37;4.00;;;;;;;26.83;36.57;100753.81;5516731;32;34290;-87
2022/06/17 11:38:00;;;;;;;6.40;4.10;;;;;;;27.43;36.11;100747.97;5506494;32;34592;-86
2022/06/17 11:41:04;;;;;;;4.20;3.80;;;;;;;27.27;36.42;100751.63;5514835;32;34835;-86
2022/06/17 11:44:19;;;;;;;5.68;4.00;;;;;;;27.64;35.66;100732.88;5514240;32;33727;-86
2022/06/17 11:47:25;;;;;;;5.07;3.95;;;;;;;27.75;36.52;100735.19;5507363;32;34757;-86
2022/06/17 11:50:32;;;;;;;5.12;3.85;;;;;;;27.75;36.92;100735.19;5512925;32;33204;-87
2022/06/17 11:53:52;;;;;;;4.68;3.90;;;;;;;27.78;35.53;100729.41;5522516;32;33842;-86
2022/06/17 11:56:55;;;;;;;7.07;4.32;;;;;;;27.50;36.07;100731.78;5526125;32;33999;-86
2022/06/17 12:00:04;;;;;;;4.68;3.80;;;;;;;27.79;37.01;100728.37;5505826;32;34111;-86
2022/06/17 12:03:17;;;;;;;5.55;3.72;;;;;;;28.00;35.73;100718.66;5503661;32;34202;-86
2022/06/17 12:06:28;;;;;;;11.25;3.95;;;;;;;27.96;34.91;100725.50;5511313;32;34155;-86
2022/06/17 12:09:38;;;;;;;5.72;4.10;;;;;;;27.70;35.87;100710.34;5510861;32;34086;-85
2022/06/17 12:12:42;;;;;;;7.18;3.92;;;;;;;28.09;36.96;100705.78;5513254;32;35068;-91
2022/06/17 12:15:54;;;;;;;4.90;3.53;;;;;;;28.79;34.62;100714.66;5492461;32;34107;-91
2022/06/17 12:18:58;;;;;;;4.53;3.72;;;;;;;28.36;35.31;100715.28;5517996;32;33738;-87
2022/06/17 12:22:13;;;;;;;7.20;3.70;;;;;;;29.29;33.95;100696.78;5502580;32;33374;-87
2022/06/17 12:25:28;;;;;;;7.12;3.62;;;;;;;29.76;34.44;100704.66;5507201;32;33527;-87
2022/06/17 12:28:46;;;;;;;4.15;3.70;;;;;;;29.95;34.46;100690.31;5509499;32;34955;-87
2022/06/17 12:31:56;;;;;;;5.90;3.58;;;;;;;29.32;32.06;100702.72;5509004;32;33846;-87
2022/06/17 12:35:21;;;;;;;4.53;3.08;;;;;;;28.98;34.53;100685.09;5525806;32;33559;-87
2022/06/17 12:38:35;;;;;;;5.30;3.28;;;;;;;29.48;34.65;100680.84;5522674;32;35113;-87
2022/06/17 12:41:48;;;;;;;4.22;3.47;;;;;;;29.62;34.28;100690.03;5525189;32;34964;-88
2022/06/17 12:45:10;;;;;;;6.18;3.40;;;;;;;28.74;37.33;100692.53;5523481;32;35098;-88
2022/06/17 12:48:49;;;;;;;3.75;2.92;;;;;;;28.40;34.06;100696.66;5513496;32;34481;-88
2022/06/17 12:56:00;;;;;;;6.55;3.37;;;;;;;26.31;36.72;100703.44;5524400;32;33075;-88
2022/06/17 12:59:20;;;;;;;8.20;3.30;;;;;;;27.03;36.87;100674.50;5525865;32;34538;-87
2022/06/17 13:03:12;;;;;;;4.20;3.20;;;;;;;27.61;35.18;100679.62;5509543;32;34563;-87
2022/06/17 13:06:43;;;;;;;7.15;3.40;;;;;;;27.82;34.11;100678.09;5502439;32;34037;-88
2022/06/17 13:10:41;;;;;;;10.80;3.33;;;;;;;27.48;34.30;100688.37;5510497;32;33991;-88
2022/06/17 13:14:03;;;;;;;5.40;3.10;;;;;;;26.97;33.02;100686.09;5502598;32;32833;-87
2022/06/17 13:17:27;;;;;;;3.35;2.78;;;;;;;26.27;34.84;100697.50;5502315;32;34686;-88
2022/06/17 13:20:38;;;;;;;3.70;3.35;;;;;;;26.79;35.04;100681.72;5510275;32;33926;-88
2022/06/17 13:23:48;;;;;;;6.20;3.40;;;;;;;26.41;36.04;100689.66;5504099;32;33336;-87
2022/06/17 13:26:58;;;;;;;9.98;2.95;;;;;;;26.67;36.88;100685.84;5507980;32;34380;-87
2022/06/17 13:30:38;;;;;;;3.70;3.10;;;;;;;26.44;34.29;100683.88;5511283;32;34090;-86
2022/06/17 13:33:53;;;;;;;5.68;3.70;;;;;;;26.26;33.08;100698.53;5511721;32;34551;-87
2022/06/17 13:37:10;;;;;;;3.33;2.53;;;;;;;26.14;33.36;100697.16;5510843;32;32251;-87
2022/06/17 13:40:23;;;;;;;3.15;2.72;;;;;;;26.08;32.01;100696.81;5509978;32;33216;-87
2022/06/17 13:43:34;;;;;;;6.68;3.28;;;;;;;25.79;31.57;100686.47;5511893;32;33483;-87
2022/06/17 13:46:47;;;;;;;3.10;2.80;;;;;;;26.15;31.84;100693.41;5510668;32;32722;-87
2022/06/17 13:49:54;;;;;;;4.32;2.90;;;;;;;26.21;31.96;100684.56;5511368;32;34410;-87
2022/06/17 13:53:21;;;;;;;5.05;2.78;;;;;;;25.84;33.13;100684.94;5509352;32;32640;-87
2022/06/17 13:56:45;;;;;;;7.22;3.25;;;;;;;26.23;33.26;100688.84;5511094;32;33757;-88
2022/06/17 13:59:54;;;;;;;3.65;2.97;;;;;;;26.69;31.64;100686.53;5509439;32;34164;-88
2022/06/17 14:03:01;;;;;;;5.15;3.10;;;;;;;26.19;33.43;100690.16;5510552;32;34608;-88
2022/06/17 14:06:09;;;;;;;5.37;3.15;;;;;;;26.42;33.06;100688.63;5510809;32;34012;-88
2022/06/17 14:09:36;;;;;;;8.95;3.47;;;;;;;26.72;33.55;100684.31;5511274;32;33992;-88
2022/06/17 14:12:46;;;;;;;4.37;2.97;;;;;;;26.39;33.32;100683.56;5509096;32;33934;-88
2022/06/17 14:16:01;;;;;;;;;;;;;;;26.15;33.87;100686.09;5511006;32;34325;-87
2022/06/17 14:19:14;;;;;;;5.57;3.40;;;;;;;26.36;34.17;100663.00;5510255;32;33886;-88
2022/06/17 14:22:27;;;;;;;3.35;3.03;;;;;;;26.12;34.98;100675.56;5510217;32;34234;-88
2022/06/17 14:25:57;;;;;;;3.83;3.20;;;;;;;26.23;34.79;100667.09;5494844;32;34059;-87
2022/06/17 14:29:10;;;;;;;4.57;3.20;;;;;;;26.08;34.89;100674.22;5512353;32;33963;-88
2022/06/17 14:32:17;;;;;;;4.57;2.72;;;;;;;26.19;34.89;100670.31;5514387;32;34425;-88
2022/06/17 14:35:31;;;;;;;3.40;3.10;;;;;;;26.39;34.96;100665.34;5511781;32;34073;-88
2022/06/17 14:38:40;;;;;;;3.95;3.10;;;;;;;26.04;34.97;100671.00;5510685;32;34499;-88
2022/06/17 14:42:02;;;;;;;4.32;2.70;;;;;;;26.10;35.38;100667.59;5510401;32;33928;-89
2022/06/17 14:45:07;;;;;;;3.03;2.60;;;;;;;25.97;36.05;100672.69;5510391;32;33821;-90
2022/06/17 14:48:13;;;;;;;2.90;2.62;;;;;;;25.61;37.32;100673.03;5510936;32;34274;-90
2022/06/17 14:51:31;;;;;;;5.32;2.45;;;;;;;25.47;37.17;100671.78;5510643;32;35352;-92
2022/06/17 14:54:35;;;;;;;3.35;2.33;;;;;;;24.84;36.71;100672.97;5509987;32;32618;-88
2022/06/17 14:57:47;;;;;;;5.82;2.00;;;;;;;25.01;36.98;100657.63;5511641;32;33719;-88
2022/06/17 15:00:52;;;;;;;2.33;2.20;;;;;;;25.26;36.29;100667.69;5510956;32;34497;-89
2022/06/17 15:04:34;;;;;;;2.30;2.10;;;;;;;25.27;35.38;100669.38;5511491;32;35078;-88
2022/06/17 15:07:45;;;;;;;3.83;2.25;;;;;;;24.88;35.46;100671.66;5511663;32;33948;-88
2022/06/17 15:11:20;;;;;;;2.62;2.30;;;;;;;24.92;35.72;100679.44;5520277;32;34288;-88
2022/06/17 15:14:24;;;;;;;2.55;2.30;;;;;;;25.16;34.98;100665.94;5519230;32;35306;-88
2022/06/17 15:17:42;;;;;;;4.45;2.20;;;;;;;25.30;34.62;100679.91;5511965;32;34857;-88
2022/06/17 15:20:49;;;;;;;3.03;2.00;;;;;;;25.27;34.80;100672.97;5518435;32;34345;-88
2022/06/17 15:24:01;;;;;;;2.85;2.30;;;;;;;25.14;34.65;100672.59;5523881;32;34025;-88
2022/06/17 15:27:28;;;;;;;2.42;2.22;;;;;;;24.85;34.97;100671.13;5515935;32;34810;-92
